createdAt,value
2023-04-26T00:01:29.312Z,100880.41
2023-04-26T00:03:56.361Z,100879.19
2023-04-26T00:06:23.355Z,100872.72
2023-04-26T00:08:50.009Z,100872.94
2023-04-26T00:11:16.720Z,100872.53
2023-04-26T00:13:43.221Z,100869.28
2023-04-26T00:16:09.780Z,100865.84
2023-04-26T00:18:36.264Z,100864.84
2023-04-26T00:21:02.834Z,100869.50
2023-04-26T00:23:29.909Z,100870.75
2023-04-26T00:25:57.398Z,100861.81
2023-04-26T00:28:23.980Z,100858.38
2023-04-26T00:30:51.287Z,100850.28
2023-04-26T00:33:17.854Z,100857.00
2023-04-26T00:35:44.429Z,100849.06
2023-04-26T00:38:11.101Z,100845.63
2023-04-26T00:40:37.633Z,100841.97
2023-04-26T00:43:04.276Z,100835.72
2023-04-26T00:45:31.276Z,100838.97
2023-04-26T00:48:01.352Z,100840.19
2023-04-26T00:50:29.163Z,100848.13
2023-04-26T00:52:57.334Z,100841.81
2023-04-26T00:55:24.144Z,100844.22
2023-04-26T00:57:50.857Z,100846.88
2023-04-26T01:00:17.598Z,100845.06
2023-04-26T01:02:44.484Z,100843.44
2023-04-26T01:05:11.549Z,100841.81
2023-04-26T01:07:41.473Z,100834.72
2023-04-26T01:10:10.175Z,100824.81
2023-04-26T01:12:38.672Z,100822.97
2023-04-26T01:15:05.932Z,100827.44
2023-04-26T01:17:32.545Z,100820.94
2023-04-26T01:19:59.160Z,100813.03
2023-04-26T01:22:25.664Z,100813.84
2023-04-26T01:24:55.087Z,100803.53
2023-04-26T01:27:21.697Z,100813.84
2023-04-26T01:29:48.189Z,100807.38
2023-04-26T01:32:14.779Z,100812.84
2023-04-26T01:34:41.464Z,100809.41
2023-04-26T01:37:08.115Z,100804.13
2023-04-26T01:39:36.649Z,100795.25
2023-04-26T01:42:04.897Z,100800.69
2023-04-26T01:44:31.890Z,100787.53
2023-04-26T01:46:58.394Z,100786.09
2023-04-26T01:49:24.923Z,100787.13
2023-04-26T01:51:51.715Z,100789.34
2023-04-26T01:54:18.202Z,100784.88
2023-04-26T01:56:44.787Z,100785.72
2023-04-26T01:59:11.506Z,100785.09
2023-04-26T02:01:38.093Z,100782.88
2023-04-26T02:04:06.354Z,100784.31
2023-04-26T02:06:32.889Z,100780.66
2023-04-26T02:08:59.417Z,100778.41
2023-04-26T02:11:27.068Z,100775.19
2023-04-26T02:13:54.016Z,100783.50
2023-04-26T02:16:21.456Z,100786.13
2023-04-26T02:18:49.843Z,100787.53
2023-04-26T02:21:20.673Z,100784.50
2023-04-26T02:23:47.244Z,100783.47
2023-04-26T02:26:14.331Z,100773.94
2023-04-26T02:28:41.926Z,100778.22
2023-04-26T02:31:08.579Z,100772.13
2023-04-26T02:33:35.176Z,100776.56
2023-04-26T02:36:06.159Z,100769.09
2023-04-26T02:38:35.220Z,100769.28
2023-04-26T02:41:03.479Z,100768.06
2023-04-26T02:43:30.276Z,100762.78
2023-04-26T02:45:58.986Z,100767.25
2023-04-26T02:48:25.762Z,100764.63
2023-04-26T02:50:52.615Z,100751.44
2023-04-26T02:53:19.149Z,100751.00
2023-04-26T02:55:46.184Z,100755.84
2023-04-26T02:58:13.177Z,100756.66
2023-04-26T03:00:39.840Z,100760.69
2023-04-26T03:03:06.882Z,100759.47
2023-04-26T03:05:33.452Z,100759.03
2023-04-26T03:07:59.956Z,100755.59
2023-04-26T03:10:26.562Z,100758.25
2023-04-26T03:12:53.079Z,100750.94
2023-04-26T03:15:19.557Z,100757.44
2023-04-26T03:17:46.229Z,100744.69
2023-04-26T03:20:13.915Z,100744.28
2023-04-26T03:22:40.539Z,100750.75
2023-04-26T03:25:07.865Z,100746.69
2023-04-26T03:27:34.646Z,100745.88
2023-04-26T03:30:01.219Z,100745.06
2023-04-26T03:32:27.937Z,100742.66
2023-04-26T03:34:54.525Z,100741.00
2023-04-26T03:37:21.116Z,100740.41
2023-04-26T03:39:47.626Z,100741.81
2023-04-26T03:42:14.108Z,100745.84
2023-04-26T03:44:40.657Z,100752.91
2023-04-26T03:47:07.163Z,100751.28
2023-04-26T03:49:33.710Z,100753.09
2023-04-26T03:52:00.361Z,100749.66
2023-04-26T03:54:27.024Z,100746.03
2023-04-26T03:56:53.556Z,100745.84
2023-04-26T03:59:20.363Z,100747.66
2023-04-26T04:01:46.982Z,100743.00
2023-04-26T04:04:13.814Z,100738.38
2023-04-26T04:06:40.743Z,100733.13
2023-04-26T04:09:07.385Z,100737.16
2023-04-26T04:11:34.687Z,100730.66
2023-04-26T04:14:01.495Z,100731.91
2023-04-26T04:16:28.091Z,100727.22
2023-04-26T04:18:54.928Z,100725.41
2023-04-26T04:21:21.680Z,100719.72
2023-04-26T04:23:48.300Z,100714.28
2023-04-26T04:26:14.838Z,100716.94
2023-04-26T04:28:41.801Z,100716.13
2023-04-26T04:31:11.416Z,100729.44
2023-04-26T04:33:38.036Z,100718.94
2023-04-26T04:36:05.138Z,100727.22
2023-04-26T04:38:31.676Z,100717.69
2023-04-26T04:40:58.265Z,100710.84
2023-04-26T04:43:24.956Z,100703.97
2023-04-26T04:45:51.511Z,100711.22
2023-04-26T04:48:18.758Z,100710.41
2023-04-26T04:50:45.355Z,100717.50
2023-04-26T04:53:14.425Z,100716.06
2023-04-26T04:55:41.176Z,100720.72
2023-04-26T04:58:07.703Z,100722.53
2023-04-26T05:00:34.287Z,100726.56
2023-04-26T05:03:01.196Z,100728.56
2023-04-26T05:05:27.844Z,100740.31
2023-04-26T05:07:54.365Z,100737.84
2023-04-26T05:10:21.136Z,100739.47
2023-04-26T05:12:47.686Z,100736.63
2023-04-26T05:15:14.378Z,100731.31
2023-04-26T05:17:42.295Z,100738.81
2023-04-26T05:20:11.177Z,100742.69
2023-04-26T05:22:37.767Z,100740.44
2023-04-26T05:25:05.166Z,100734.94
2023-04-26T05:27:31.699Z,100745.84
2023-04-26T05:29:58.240Z,100739.97
2023-04-26T05:32:24.747Z,100734.72
2023-04-26T05:34:51.997Z,100732.06
2023-04-26T05:37:18.602Z,100736.94
2023-04-26T05:39:45.216Z,100734.75
2023-04-26T05:42:11.814Z,100734.75
2023-04-26T05:44:38.364Z,100741.84
2023-04-26T05:47:04.974Z,100731.75
2023-04-26T05:49:31.495Z,100742.28
2023-04-26T05:52:01.092Z,100739.28
2023-04-26T05:54:27.582Z,100744.53
2023-04-26T05:56:54.043Z,100743.16
2023-04-26T05:59:21.207Z,100747.22
2023-04-26T06:01:47.879Z,100746.81
2023-04-26T06:04:14.688Z,100752.28
2023-04-26T06:06:41.386Z,100745.03
2023-04-26T06:09:08.713Z,100746.84
2023-04-26T06:11:35.243Z,100748.09
2023-04-26T06:14:01.854Z,100746.25
2023-04-26T06:16:28.463Z,100739.81
2023-04-26T06:18:55.085Z,100744.84
2023-04-26T06:21:21.637Z,100738.78
2023-04-26T06:23:48.178Z,100740.81
2023-04-26T06:26:14.750Z,100751.53
2023-04-26T06:28:42.288Z,100746.47
2023-04-26T06:31:09.059Z,100752.53
2023-04-26T06:33:35.790Z,100768.31
2023-04-26T06:36:02.576Z,100754.16
2023-04-26T06:38:29.194Z,100756.97
2023-04-26T06:40:55.723Z,100772.38
2023-04-26T06:43:22.283Z,100767.91
2023-04-26T06:45:49.464Z,100773.59
2023-04-26T06:48:16.062Z,100768.75
2023-04-26T06:50:42.657Z,100766.34
2023-04-26T06:53:09.176Z,100759.88
2023-04-26T06:55:35.874Z,100761.91
2023-04-26T06:58:02.485Z,100769.78
2023-04-26T07:00:30.063Z,100768.84
2023-04-26T07:02:56.939Z,100771.69
2023-04-26T07:05:23.820Z,100772.34
2023-04-26T07:07:50.707Z,100767.47
2023-04-26T07:10:17.384Z,100762.00
2023-04-26T07:12:44.020Z,100762.81
2023-04-26T07:15:11.184Z,100759.97
2023-04-26T07:17:37.736Z,100765.84
2023-04-26T07:20:05.202Z,100761.63
2023-04-26T07:22:31.716Z,100767.66
2023-04-26T07:24:58.282Z,100756.09
2023-04-26T07:27:25.177Z,100762.19
2023-04-26T07:29:55.064Z,100755.88
2023-04-26T07:32:22.014Z,100758.91
2023-04-26T07:34:48.661Z,100755.03
2023-04-26T07:37:15.154Z,100751.75
2023-04-26T07:39:41.637Z,100753.53
2023-04-26T07:42:08.198Z,100754.91
2023-04-26T07:44:34.936Z,100753.22
2023-04-26T07:47:01.432Z,100748.09
2023-04-26T07:49:28.007Z,100750.28
2023-04-26T07:51:56.430Z,100745.34
2023-04-26T07:54:22.947Z,100740.41
2023-04-26T07:56:49.512Z,100752.31
2023-04-26T07:59:16.383Z,100739.47
2023-04-26T08:01:42.944Z,100737.16
2023-04-26T08:04:09.765Z,100734.88
2023-04-26T08:06:38.791Z,100745.75
2023-04-26T08:09:05.550Z,100742.41
2023-04-26T08:11:32.803Z,100749.22
2023-04-26T08:13:59.485Z,100745.25
2023-04-26T08:16:26.104Z,100747.78
2023-04-26T08:18:52.624Z,100736.25
2023-04-26T08:21:19.108Z,100738.50
2023-04-26T08:23:45.775Z,100733.09
2023-04-26T08:26:12.318Z,100741.66
2023-04-26T08:28:38.796Z,100752.31
2023-04-26T08:31:05.493Z,100749.72
2023-04-26T08:33:32.237Z,100744.47
2023-04-26T08:36:01.165Z,100746.81
2023-04-26T08:38:27.822Z,100742.81
2023-04-26T08:40:56.316Z,100748.81
2023-04-26T08:43:23.135Z,100744.22
2023-04-26T08:45:50.931Z,100745.22
2023-04-26T08:48:18.582Z,100742.25
2023-04-26T08:50:46.686Z,100743.97
2023-04-26T08:53:20.149Z,100739.13
2023-04-26T08:55:50.690Z,100740.88
2023-04-26T08:58:18.629Z,100741.81
2023-04-26T09:00:46.307Z,100739.66
2023-04-26T09:03:13.304Z,100736.06
2023-04-26T09:05:44.233Z,100741.25
2023-04-26T09:08:16.217Z,100738.25
2023-04-26T09:10:42.923Z,100736.06
2023-04-26T09:13:09.571Z,100736.31
2023-04-26T09:15:36.329Z,100733.84
2023-04-26T09:18:20.128Z,100731.78
2023-04-26T09:21:01.265Z,100735.78
2023-04-26T09:23:27.766Z,100729.16
2023-04-26T09:25:54.278Z,100733.72
2023-04-26T09:28:22.740Z,100726.09
2023-04-26T09:30:49.502Z,100729.91
2023-04-26T09:33:16.308Z,100730.50
2023-04-26T09:35:44.112Z,100724.25
2023-04-26T09:38:16.074Z,100730.44
2023-04-26T09:40:45.433Z,100732.13
2023-04-26T09:43:14.337Z,100731.72
2023-04-26T09:45:52.754Z,100730.44
2023-04-26T09:48:23.469Z,100726.47
2023-04-26T09:50:52.601Z,100731.78
2023-04-26T09:53:37.054Z,100722.97
2023-04-26T09:56:10.724Z,100733.81
2023-04-26T09:58:39.255Z,100719.34
2023-04-26T10:01:07.855Z,100725.91
2023-04-26T10:03:37.253Z,100720.97
2023-04-26T10:06:04.954Z,100726.72
2023-04-26T10:08:32.870Z,100718.28
2023-04-26T10:11:02.290Z,100723.44
2023-04-26T10:13:29.235Z,100721.16
2023-04-26T10:15:56.588Z,100722.03
2023-04-26T10:18:23.215Z,100714.59
2023-04-26T10:20:53.671Z,100714.38
2023-04-26T10:23:25.682Z,100703.47
2023-04-26T10:25:52.925Z,100706.41
2023-04-26T10:28:45.993Z,100701.06
2023-04-26T10:31:12.593Z,100704.88
2023-04-26T10:33:39.346Z,100703.00
2023-04-26T10:36:12.219Z,100697.88
2023-04-26T10:39:03.013Z,100693.28
2023-04-26T10:41:31.627Z,100683.31
2023-04-26T10:44:00.857Z,100674.13
2023-04-26T10:46:39.519Z,100669.06
2023-04-26T10:49:25.626Z,100656.31
2023-04-26T10:52:12.862Z,100646.41
2023-04-26T10:54:51.017Z,100653.44
2023-04-26T10:57:18.034Z,100643.25
2023-04-26T11:00:10.814Z,100638.72
2023-04-26T11:02:53.354Z,100645.41
2023-04-26T11:05:42.433Z,100632.03
2023-04-26T11:08:19.694Z,100636.88
2023-04-26T11:10:57.863Z,100637.41
2023-04-26T11:13:24.717Z,100634.69
2023-04-26T11:15:55.154Z,100632.31
2023-04-26T11:18:22.696Z,100636.06
2023-04-26T11:20:49.426Z,100624.00
2023-04-26T11:23:18.500Z,100620.81
2023-04-26T11:25:45.128Z,100621.06
2023-04-26T11:28:12.373Z,100615.97
2023-04-26T11:30:39.008Z,100628.56
2023-04-26T11:33:05.580Z,100621.34
2023-04-26T11:35:40.535Z,100619.75
2023-04-26T11:38:07.566Z,100618.66
2023-04-26T11:40:36.502Z,100624.03
2023-04-26T11:43:06.827Z,100619.47
2023-04-26T11:45:35.072Z,100620.81
2023-04-26T11:48:11.043Z,100620.56
2023-04-26T11:50:38.866Z,100617.06
2023-04-26T11:53:08.769Z,100620.81
2023-04-26T11:55:36.021Z,100626.69
2023-04-26T11:58:11.544Z,100617.31
2023-04-26T12:00:38.891Z,100615.72
2023-04-26T12:03:10.442Z,100618.38
2023-04-26T12:05:38.091Z,100620.00
2023-04-26T12:08:04.880Z,100619.19
2023-04-26T12:10:36.616Z,100611.44
2023-04-26T12:13:03.118Z,100614.38
2023-04-26T12:15:32.464Z,100613.03
2023-04-26T12:18:10.182Z,100611.97
2023-04-26T12:20:39.250Z,100607.16
2023-04-26T12:23:11.434Z,100611.16
2023-04-26T12:25:39.611Z,100611.94
2023-04-26T12:28:12.647Z,100609.28
2023-04-26T12:30:40.780Z,100609.84
2023-04-26T12:33:16.566Z,100611.44
2023-04-26T12:35:44.114Z,100612.25
2023-04-26T12:38:11.026Z,100616.78
2023-04-26T12:40:37.774Z,100622.41
2023-04-26T12:43:04.299Z,100621.63
2023-04-26T12:45:31.242Z,100625.06
2023-04-26T12:47:58.029Z,100618.13
2023-04-26T12:50:24.872Z,100616.50
2023-04-26T12:52:51.636Z,100617.06
2023-04-26T12:55:18.972Z,100617.34
2023-04-26T12:57:45.934Z,100601.56
2023-04-26T13:00:14.994Z,100611.97
2023-04-26T13:02:42.169Z,100615.22
2023-04-26T13:05:09.445Z,100620.53
2023-04-26T13:07:39.258Z,100624.53
2023-04-26T13:10:07.137Z,100619.22
2023-04-26T13:12:34.536Z,100613.03
2023-04-26T13:15:01.191Z,100613.84
2023-04-26T13:17:28.268Z,100615.19
2023-04-26T13:19:54.911Z,100615.72
2023-04-26T13:22:21.505Z,100622.94
2023-04-26T13:24:48.095Z,100620.81
2023-04-26T13:27:14.821Z,100618.66
2023-04-26T13:29:42.250Z,100619.50
2023-04-26T13:32:08.909Z,100625.88
2023-04-26T13:34:35.927Z,100627.22
2023-04-26T13:37:03.967Z,100624.03
2023-04-26T13:39:30.964Z,100615.47
2023-04-26T13:42:02.009Z,100616.81
2023-04-26T13:44:28.616Z,100615.44
2023-04-26T13:46:56.529Z,100628.28
2023-04-26T13:49:26.238Z,100623.47
2023-04-26T13:51:55.622Z,100608.22
2023-04-26T13:54:22.548Z,100615.97
2023-04-26T13:56:49.245Z,100613.84
2023-04-26T13:59:15.794Z,100617.59
2023-04-26T14:01:42.418Z,100611.72
2023-04-26T14:04:09.108Z,100607.72
2023-04-26T14:06:36.044Z,100606.63
2023-04-26T14:09:05.089Z,100612.50
2023-04-26T14:11:31.962Z,100617.34
2023-04-26T14:13:59.220Z,100608.78
2023-04-26T14:16:26.026Z,100597.53
2023-04-26T14:18:53.136Z,100606.09
2023-04-26T14:21:19.890Z,100604.22
2023-04-26T14:23:46.525Z,100607.69
2023-04-26T14:26:13.360Z,100598.63
2023-04-26T14:28:41.127Z,100600.75
2023-04-26T14:31:08.333Z,100601.00
2023-04-26T14:33:35.519Z,100602.09
2023-04-26T14:36:02.259Z,100593.78
2023-04-26T14:38:28.787Z,100597.25
2023-04-26T14:40:55.404Z,100595.66
2023-04-26T14:43:22.035Z,100598.84
2023-04-26T14:45:48.592Z,100591.66
2023-04-26T14:48:15.379Z,100592.72
2023-04-26T14:50:42.326Z,100601.78
2023-04-26T14:53:09.867Z,100593.50
2023-04-26T14:55:37.230Z,100591.13
2023-04-26T14:58:03.852Z,100592.69
2023-04-26T15:00:30.799Z,100599.91
2023-04-26T15:02:57.590Z,100597.22
2023-04-26T15:05:24.418Z,100603.38
2023-04-26T15:07:51.965Z,100596.13
2023-04-26T15:10:18.965Z,100606.31
2023-04-26T15:12:45.964Z,100598.56
2023-04-26T15:15:12.514Z,100595.88
2023-04-26T15:17:39.080Z,100594.81
2023-04-26T15:20:06.489Z,100592.66
2023-04-26T15:22:36.092Z,100595.59
2023-04-26T15:25:04.987Z,100587.84
2023-04-26T15:27:31.530Z,100588.38
2023-04-26T15:29:58.711Z,100585.19
2023-04-26T15:32:26.033Z,100586.22
2023-04-26T15:34:52.772Z,100585.44
2023-04-26T15:37:19.313Z,100585.72
2023-04-26T15:39:45.808Z,100583.31
2023-04-26T15:42:12.353Z,100587.88
2023-04-26T15:44:39.060Z,100581.75
2023-04-26T15:47:05.990Z,100577.44
2023-04-26T15:49:32.616Z,100580.91
2023-04-26T15:51:59.233Z,100567.31
2023-04-26T15:54:26.630Z,100560.59
2023-04-26T15:56:53.328Z,100569.44
2023-04-26T15:59:20.329Z,100570.78
2023-04-26T16:01:46.932Z,100581.22
2023-04-26T16:04:14.254Z,100583.84
2023-04-26T16:06:41.077Z,100583.59
2023-04-26T16:09:23.348Z,100589.75
2023-04-26T16:11:51.706Z,100583.28
2023-04-26T16:14:18.306Z,100585.66
2023-04-26T16:16:46.012Z,100588.56
2023-04-26T16:19:12.930Z,100591.13
2023-04-26T16:21:40.777Z,100594.25
2023-04-26T16:24:09.296Z,100594.97
2023-04-26T16:26:36.236Z,100584.38
2023-04-26T16:29:04.379Z,100598.25
2023-04-26T16:31:32.381Z,100588.25
2023-04-26T16:33:59.611Z,100598.69
2023-04-26T16:36:27.321Z,100602.09
2023-04-26T16:38:55.040Z,100593.75
2023-04-26T16:41:23.175Z,100597.72
2023-04-26T16:43:52.616Z,100598.19
2023-04-26T16:46:19.592Z,100599.75
2023-04-26T16:48:46.335Z,100604.28
2023-04-26T16:51:13.077Z,100602.91
2023-04-26T16:53:39.831Z,100602.06
2023-04-26T16:56:07.124Z,100601.78
2023-04-26T16:58:33.734Z,100601.28
2023-04-26T17:01:00.482Z,100605.06
2023-04-26T17:03:27.912Z,100596.75
2023-04-26T17:05:55.051Z,100595.44
2023-04-26T17:08:22.045Z,100603.53
2023-04-26T17:10:48.833Z,100596.56
2023-04-26T17:13:15.469Z,100597.47
2023-04-26T17:15:42.795Z,100600.75
2023-04-26T17:18:09.866Z,100597.06
2023-04-26T17:20:36.642Z,100595.25
2023-04-26T17:23:08.595Z,100595.06
2023-04-26T17:25:35.412Z,100598.34
2023-04-26T17:28:01.990Z,100597.84
2023-04-26T17:30:28.646Z,100601.41
2023-04-26T17:32:55.332Z,100598.78
2023-04-26T17:35:21.983Z,100590.78
2023-04-26T17:37:50.449Z,100588.66
2023-04-26T17:40:18.482Z,100591.66
2023-04-26T17:42:46.176Z,100601.84
2023-04-26T17:45:14.470Z,100602.94
2023-04-26T17:47:42.437Z,100601.88
2023-04-26T17:50:10.575Z,100604.59
2023-04-26T17:52:37.783Z,100600.88
2023-04-26T17:55:06.599Z,100599.00
2023-04-26T17:57:33.137Z,100600.88
2023-04-26T17:59:59.653Z,100606.25
2023-04-26T18:02:26.348Z,100606.53
2023-04-26T18:04:54.620Z,100604.97
2023-04-26T18:07:21.446Z,100606.84
2023-04-26T18:09:48.240Z,100600.16
2023-04-26T18:12:14.825Z,100594.31
2023-04-26T18:14:44.943Z,100589.22
2023-04-26T18:17:13.022Z,100589.25
2023-04-26T18:19:40.205Z,100587.34
2023-04-26T18:22:07.631Z,100591.94
2023-04-26T18:24:35.425Z,100581.22
2023-04-26T18:27:02.771Z,100584.16
2023-04-26T18:29:30.139Z,100579.34
2023-04-26T18:31:56.990Z,100575.63
2023-04-26T18:34:24.070Z,100582.81
2023-04-26T18:36:51.780Z,100588.69
2023-04-26T18:39:18.345Z,100581.44
2023-04-26T18:41:44.902Z,100586.78
2023-04-26T18:44:14.355Z,100585.91
2023-04-26T18:46:41.560Z,100585.06
2023-04-26T18:49:09.211Z,100592.53
2023-04-26T18:51:35.845Z,100593.81
2023-04-26T18:54:02.533Z,100599.09
2023-04-26T18:56:29.659Z,100599.31
2023-04-26T18:58:56.478Z,100597.63
2023-04-26T19:01:23.586Z,100596.25
2023-04-26T19:03:50.407Z,100604.44
2023-04-26T19:06:17.328Z,100601.16
2023-04-26T19:08:44.929Z,100608.50
2023-04-26T19:11:12.451Z,100607.88
2023-04-26T19:13:40.294Z,100609.13
2023-04-26T19:16:07.709Z,100610.63
2023-04-26T19:18:36.141Z,100614.28
2023-04-26T19:21:07.333Z,100621.59
2023-04-26T19:23:34.457Z,100618.78
2023-04-26T19:26:14.089Z,100620.28
2023-04-26T19:28:40.896Z,100618.84
2023-04-26T19:31:07.516Z,100622.47
2023-04-26T19:33:34.204Z,100622.41
2023-04-26T19:36:00.900Z,100621.22
2023-04-26T19:38:27.494Z,100628.25
2023-04-26T19:40:54.134Z,100626.81
2023-04-26T19:43:20.882Z,100628.06
2023-04-26T19:45:47.786Z,100626.06
2023-04-26T19:48:14.439Z,100622.22
2023-04-26T19:50:42.644Z,100626.91
2023-04-26T19:53:09.938Z,100623.34
2023-04-26T19:55:37.851Z,100622.19
2023-04-26T19:58:05.190Z,100635.41
2023-04-26T20:00:35.528Z,100636.84
2023-04-26T20:03:02.956Z,100636.44
2023-04-26T20:05:29.894Z,100637.91
2023-04-26T20:07:59.216Z,100643.38
2023-04-26T20:10:25.845Z,100643.84
2023-04-26T20:12:53.289Z,100643.44
2023-04-26T20:15:20.020Z,100645.69
2023-04-26T20:17:46.643Z,100651.97
2023-04-26T20:20:13.261Z,100653.16
2023-04-26T20:22:40.759Z,100651.78
2023-04-26T20:25:07.805Z,100646.56
2023-04-26T20:27:34.650Z,100652.06
2023-04-26T20:30:01.310Z,100647.69
2023-04-26T20:32:28.045Z,100659.34
2023-04-26T20:34:54.568Z,100659.38
2023-04-26T20:37:21.940Z,100665.41
2023-04-26T20:39:49.049Z,100672.09
2023-04-26T20:42:16.175Z,100671.47
2023-04-26T20:44:43.175Z,100670.53
2023-04-26T20:47:09.915Z,100681.94
2023-04-26T20:49:36.612Z,100680.69
2023-04-26T20:52:03.488Z,100677.94
2023-04-26T20:54:30.049Z,100687.41
2023-04-26T20:56:56.618Z,100686.13
2023-04-26T20:59:25.127Z,100693.66
2023-04-26T21:01:53.043Z,100682.13
2023-04-26T21:04:20.133Z,100691.00
2023-04-26T21:06:46.872Z,100692.84
2023-04-26T21:09:13.579Z,100695.03
2023-04-26T21:11:40.313Z,100697.78
2023-04-26T21:14:07.214Z,100700.09
2023-04-26T21:16:33.800Z,100700.44
2023-04-26T21:19:00.541Z,100707.13
2023-04-26T21:21:28.665Z,100704.09
2023-04-26T21:23:55.644Z,100712.16
2023-04-26T21:26:22.243Z,100721.81
2023-04-26T21:28:48.789Z,100716.13
2023-04-26T21:31:15.565Z,100715.44
2023-04-26T21:33:42.230Z,100722.66
2023-04-26T21:36:09.112Z,100716.66
2023-04-26T21:38:35.745Z,100721.81
2023-04-26T21:41:02.324Z,100723.53
2023-04-26T21:43:28.836Z,100718.31
2023-04-26T21:45:58.134Z,100725.69
2023-04-26T21:48:26.126Z,100723.69
2023-04-26T21:50:52.869Z,100726.06
2023-04-26T21:53:19.400Z,100725.84
2023-04-26T21:55:51.547Z,100724.69
2023-04-26T21:58:18.414Z,100724.53
2023-04-26T22:00:44.997Z,100728.00
2023-04-26T22:03:11.946Z,100733.16
2023-04-26T22:05:38.770Z,100727.72
2023-04-26T22:08:05.717Z,100723.69
2023-04-26T22:10:32.303Z,100727.56
2023-04-26T22:12:58.919Z,100728.25
2023-04-26T22:15:25.466Z,100730.50
2023-04-26T22:17:52.052Z,100728.41
2023-04-26T22:20:18.700Z,100721.94
2023-04-26T22:22:45.477Z,100730.88
2023-04-26T22:25:12.024Z,100730.75
2023-04-26T22:27:38.572Z,100730.78
2023-04-26T22:30:22.994Z,100734.72
2023-04-26T22:32:54.569Z,100731.31
2023-04-26T22:35:22.194Z,100732.78
2023-04-26T22:37:49.006Z,100742.31
2023-04-26T22:40:15.741Z,100742.41
2023-04-26T22:42:43.149Z,100738.59
2023-04-26T22:45:11.176Z,100739.44
2023-04-26T22:47:38.390Z,100733.56
2023-04-26T22:50:06.078Z,100748.44
2023-04-26T22:52:32.755Z,100736.47
2023-04-26T22:55:02.437Z,100738.59
2023-04-26T22:57:29.952Z,100738.97
2023-04-26T22:59:56.769Z,100734.19
2023-04-26T23:02:23.891Z,100738.47
2023-04-26T23:04:50.770Z,100734.66
2023-04-26T23:07:17.424Z,100728.78
2023-04-26T23:09:43.931Z,100728.41
2023-04-26T23:12:10.705Z,100729.84
2023-04-26T23:14:37.870Z,100731.06
2023-04-26T23:17:05.365Z,100730.91
2023-04-26T23:19:33.041Z,100742.28
2023-04-26T23:21:59.901Z,100739.66
2023-04-26T23:24:26.958Z,100734.84
2023-04-26T23:26:53.874Z,100739.94
2023-04-26T23:29:20.454Z,100741.38
2023-04-26T23:31:47.112Z,100741.59
2023-04-26T23:34:13.689Z,100749.94
2023-04-26T23:36:40.276Z,100739.41
2023-04-26T23:39:07.232Z,100744.50
2023-04-26T23:41:33.768Z,100738.69
2023-04-26T23:44:00.411Z,100747.00
2023-04-26T23:46:27.025Z,100744.56
2023-04-26T23:48:53.611Z,100737.94
2023-04-26T23:51:20.536Z,100731.44
2023-04-26T23:53:47.107Z,100739.38
2023-04-26T23:56:13.706Z,100749.94
2023-04-26T23:58:40.269Z,100754.81
